sensor_id;sensor_type;location;lat;lon;timestamp;P1;durP1;ratioP1;P2;durP2;ratioP2
17987;SDS011;9119;50.932;5.342;2022-09-01T00:01:44;3.40;;;1.40;;
17987;SDS011;9119;50.932;5.342;2022-09-01T00:04:16;6.03;;;1.77;;
17987;SDS011;9119;50.932;5.342;2022-09-01T00:06:44;4.53;;;1.63;;
17987;SDS011;9119;50.932;5.342;2022-09-01T00:09:12;7.20;;;1.90;;
17987;SDS011;9119;50.932;5.342;2022-09-01T00:11:41;4.43;;;1.50;;
17987;SDS011;9119;50.932;5.342;2022-09-01T00:14:08;4.50;;;1.63;;
17987;SDS011;9119;50.932;5.342;2022-09-01T00:16:35;4.40;;;1.70;;
17987;SDS011;9119;50.932;5.342;2022-09-01T00:19:01;5.23;;;1.40;;
17987;SDS011;9119;50.932;5.342;2022-09-01T00:21:29;4.50;;;1.80;;
17987;SDS011;9119;50.932;5.342;2022-09-01T00:23:56;3.70;;;1.43;;
17987;SDS011;9119;50.932;5.342;2022-09-01T00:26:23;3.77;;;1.60;;
17987;SDS011;9119;50.932;5.342;2022-09-01T00:28:49;6.43;;;1.53;;
17987;SDS011;9119;50.932;5.342;2022-09-01T00:31:15;4.47;;;1.70;;
17987;SDS011;9119;50.932;5.342;2022-09-01T00:33:43;6.17;;;1.83;;
17987;SDS011;9119;50.932;5.342;2022-09-01T00:36:09;7.37;;;1.63;;
17987;SDS011;9119;50.932;5.342;2022-09-01T00:38:35;2.47;;;1.40;;
17987;SDS011;9119;50.932;5.342;2022-09-01T00:41:00;4.73;;;1.50;;
17987;SDS011;9119;50.932;5.342;2022-09-01T00:43:40;3.97;;;1.60;;
17987;SDS011;9119;50.932;5.342;2022-09-01T00:46:07;4.57;;;1.60;;
17987;SDS011;9119;50.932;5.342;2022-09-01T00:48:37;3.23;;;1.60;;
17987;SDS011;9119;50.932;5.342;2022-09-01T00:51:03;4.77;;;1.73;;
17987;SDS011;9119;50.932;5.342;2022-09-01T00:53:31;4.80;;;1.93;;
17987;SDS011;9119;50.932;5.342;2022-09-01T00:55:57;3.37;;;1.67;;
17987;SDS011;9119;50.932;5.342;2022-09-01T00:58:23;3.73;;;1.60;;
17987;SDS011;9119;50.932;5.342;2022-09-01T01:00:50;5.20;;;1.50;;
17987;SDS011;9119;50.932;5.342;2022-09-01T01:03:17;3.77;;;1.50;;
17987;SDS011;9119;50.932;5.342;2022-09-01T01:05:48;2.73;;;1.60;;
17987;SDS011;9119;50.932;5.342;2022-09-01T01:08:24;3.63;;;1.70;;
17987;SDS011;9119;50.932;5.342;2022-09-01T01:10:58;8.97;;;1.80;;
17987;SDS011;9119;50.932;5.342;2022-09-01T01:13:28;4.07;;;1.43;;
17987;SDS011;9119;50.932;5.342;2022-09-01T01:16:00;5.27;;;1.33;;
17987;SDS011;9119;50.932;5.342;2022-09-01T01:18:27;2.30;;;1.53;;
17987;SDS011;9119;50.932;5.342;2022-09-01T01:20:57;4.90;;;1.67;;
17987;SDS011;9119;50.932;5.342;2022-09-01T01:23:49;7.57;;;1.60;;
17987;SDS011;9119;50.932;5.342;2022-09-01T01:26:34;3.97;;;1.63;;
17987;SDS011;9119;50.932;5.342;2022-09-01T01:29:01;4.13;;;1.70;;
17987;SDS011;9119;50.932;5.342;2022-09-01T01:31:27;3.03;;;1.80;;
17987;SDS011;9119;50.932;5.342;2022-09-01T01:33:54;2.53;;;1.70;;
17987;SDS011;9119;50.932;5.342;2022-09-01T01:38:55;5.53;;;1.67;;
17987;SDS011;9119;50.932;5.342;2022-09-01T01:41:27;7.07;;;2.00;;
17987;SDS011;9119;50.932;5.342;2022-09-01T01:43:56;3.97;;;1.57;;
17987;SDS011;9119;50.932;5.342;2022-09-01T01:46:23;5.73;;;2.00;;
17987;SDS011;9119;50.932;5.342;2022-09-01T01:48:50;4.23;;;1.70;;
17987;SDS011;9119;50.932;5.342;2022-09-01T01:51:18;3.20;;;1.70;;
17987;SDS011;9119;50.932;5.342;2022-09-01T01:53:48;4.70;;;1.53;;
17987;SDS011;9119;50.932;5.342;2022-09-01T01:56:16;3.37;;;1.60;;
17987;SDS011;9119;50.932;5.342;2022-09-01T01:58:43;3.60;;;1.60;;
17987;SDS011;9119;50.932;5.342;2022-09-01T02:01:09;6.00;;;1.97;;
17987;SDS011;9119;50.932;5.342;2022-09-01T02:03:36;5.30;;;1.80;;
17987;SDS011;9119;50.932;5.342;2022-09-01T02:06:04;4.80;;;1.40;;
17987;SDS011;9119;50.932;5.342;2022-09-01T02:08:32;8.63;;;1.90;;
17987;SDS011;9119;50.932;5.342;2022-09-01T02:11:00;2.73;;;1.60;;
17987;SDS011;9119;50.932;5.342;2022-09-01T02:13:26;5.20;;;1.80;;
17987;SDS011;9119;50.932;5.342;2022-09-01T02:15:56;6.27;;;1.83;;
17987;SDS011;9119;50.932;5.342;2022-09-01T02:18:26;8.80;;;1.93;;
17987;SDS011;9119;50.932;5.342;2022-09-01T02:20:59;4.67;;;1.90;;
17987;SDS011;9119;50.932;5.342;2022-09-01T02:23:25;9.27;;;1.80;;
17987;SDS011;9119;50.932;5.342;2022-09-01T02:25:53;4.83;;;1.53;;
17987;SDS011;9119;50.932;5.342;2022-09-01T02:28:22;5.63;;;1.70;;
17987;SDS011;9119;50.932;5.342;2022-09-01T02:30:49;3.70;;;1.90;;
17987;SDS011;9119;50.932;5.342;2022-09-01T02:33:19;5.87;;;1.83;;
17987;SDS011;9119;50.932;5.342;2022-09-01T02:35:47;7.53;;;2.10;;
17987;SDS011;9119;50.932;5.342;2022-09-01T02:38:14;3.17;;;1.83;;
17987;SDS011;9119;50.932;5.342;2022-09-01T02:40:42;5.20;;;2.13;;
17987;SDS011;9119;50.932;5.342;2022-09-01T02:43:09;4.20;;;1.70;;
17987;SDS011;9119;50.932;5.342;2022-09-01T02:45:36;5.23;;;1.80;;
17987;SDS011;9119;50.932;5.342;2022-09-01T02:48:02;7.47;;;2.27;;
17987;SDS011;9119;50.932;5.342;2022-09-01T02:50:34;4.23;;;1.80;;
17987;SDS011;9119;50.932;5.342;2022-09-01T02:53:01;5.40;;;2.00;;
17987;SDS011;9119;50.932;5.342;2022-09-01T02:55:30;5.40;;;2.00;;
17987;SDS011;9119;50.932;5.342;2022-09-01T02:57:56;7.97;;;2.13;;
17987;SDS011;9119;50.932;5.342;2022-09-01T03:00:22;3.17;;;1.60;;
17987;SDS011;9119;50.932;5.342;2022-09-01T03:02:56;7.47;;;1.73;;
17987;SDS011;9119;50.932;5.342;2022-09-01T03:05:24;6.13;;;2.10;;
17987;SDS011;9119;50.932;5.342;2022-09-01T03:07:55;5.30;;;1.70;;
17987;SDS011;9119;50.932;5.342;2022-09-01T03:10:24;4.40;;;1.80;;
17987;SDS011;9119;50.932;5.342;2022-09-01T03:12:56;7.67;;;2.50;;
17987;SDS011;9119;50.932;5.342;2022-09-01T03:15:24;5.43;;;1.97;;
17987;SDS011;9119;50.932;5.342;2022-09-01T03:17:51;6.87;;;2.10;;
17987;SDS011;9119;50.932;5.342;2022-09-01T03:20:17;6.10;;;2.00;;
17987;SDS011;9119;50.932;5.342;2022-09-01T03:22:45;3.43;;;1.87;;
17987;SDS011;9119;50.932;5.342;2022-09-01T03:25:12;6.53;;;1.80;;
17987;SDS011;9119;50.932;5.342;2022-09-01T03:27:38;5.07;;;1.90;;
17987;SDS011;9119;50.932;5.342;2022-09-01T03:30:04;5.87;;;1.80;;
17987;SDS011;9119;50.932;5.342;2022-09-01T03:32:31;4.67;;;2.53;;
17987;SDS011;9119;50.932;5.342;2022-09-01T03:34:56;4.53;;;2.10;;
17987;SDS011;9119;50.932;5.342;2022-09-01T03:37:22;8.43;;;2.20;;
17987;SDS011;9119;50.932;5.342;2022-09-01T03:39:48;7.60;;;2.43;;
17987;SDS011;9119;50.932;5.342;2022-09-01T03:42:14;9.40;;;2.23;;
17987;SDS011;9119;50.932;5.342;2022-09-01T03:44:49;4.23;;;2.10;;
17987;SDS011;9119;50.932;5.342;2022-09-01T03:47:17;2.90;;;1.97;;
17987;SDS011;9119;50.932;5.342;2022-09-01T03:49:45;4.97;;;2.23;;
17987;SDS011;9119;50.932;5.342;2022-09-01T03:52:13;8.33;;;2.37;;
17987;SDS011;9119;50.932;5.342;2022-09-01T03:54:41;4.33;;;1.90;;
17987;SDS011;9119;50.932;5.342;2022-09-01T03:57:07;6.13;;;2.43;;
17987;SDS011;9119;50.932;5.342;2022-09-01T03:59:34;7.87;;;2.37;;
17987;SDS011;9119;50.932;5.342;2022-09-01T04:02:03;7.00;;;2.27;;
17987;SDS011;9119;50.932;5.342;2022-09-01T04:04:29;23.80;;;3.43;;
17987;SDS011;9119;50.932;5.342;2022-09-01T04:06:57;4.63;;;2.30;;
17987;SDS011;9119;50.932;5.342;2022-09-01T04:09:26;8.60;;;2.30;;
17987;SDS011;9119;50.932;5.342;2022-09-01T04:11:52;8.57;;;2.20;;
17987;SDS011;9119;50.932;5.342;2022-09-01T04:14:18;14.10;;;3.00;;
17987;SDS011;9119;50.932;5.342;2022-09-01T04:16:44;10.20;;;2.53;;
17987;SDS011;9119;50.932;5.342;2022-09-01T04:19:31;11.83;;;2.37;;
17987;SDS011;9119;50.932;5.342;2022-09-01T04:22:03;4.53;;;2.20;;
17987;SDS011;9119;50.932;5.342;2022-09-01T04:24:30;3.50;;;2.50;;
17987;SDS011;9119;50.932;5.342;2022-09-01T04:26:57;7.23;;;2.53;;
17987;SDS011;9119;50.932;5.342;2022-09-01T04:29:25;8.77;;;2.60;;
17987;SDS011;9119;50.932;5.342;2022-09-01T04:31:52;6.90;;;2.73;;
17987;SDS011;9119;50.932;5.342;2022-09-01T04:34:20;9.73;;;2.80;;
17987;SDS011;9119;50.932;5.342;2022-09-01T04:36:46;5.43;;;2.67;;
17987;SDS011;9119;50.932;5.342;2022-09-01T04:39:12;6.97;;;2.50;;
17987;SDS011;9119;50.932;5.342;2022-09-01T04:41:42;8.53;;;2.70;;
17987;SDS011;9119;50.932;5.342;2022-09-01T04:44:10;8.43;;;2.33;;
17987;SDS011;9119;50.932;5.342;2022-09-01T04:46:40;10.47;;;2.70;;
17987;SDS011;9119;50.932;5.342;2022-09-01T04:49:10;9.53;;;2.70;;
17987;SDS011;9119;50.932;5.342;2022-09-01T04:51:41;6.67;;;3.10;;
17987;SDS011;9119;50.932;5.342;2022-09-01T04:54:08;10.63;;;3.20;;
17987;SDS011;9119;50.932;5.342;2022-09-01T04:56:39;10.10;;;3.57;;
17987;SDS011;9119;50.932;5.342;2022-09-01T04:59:07;6.37;;;2.67;;
17987;SDS011;9119;50.932;5.342;2022-09-01T05:01:34;5.63;;;2.83;;
17987;SDS011;9119;50.932;5.342;2022-09-01T05:04:07;6.60;;;3.00;;
17987;SDS011;9119;50.932;5.342;2022-09-01T05:06:34;5.50;;;2.93;;
17987;SDS011;9119;50.932;5.342;2022-09-01T05:09:03;7.00;;;2.83;;
17987;SDS011;9119;50.932;5.342;2022-09-01T05:11:29;7.57;;;2.97;;
17987;SDS011;9119;50.932;5.342;2022-09-01T05:13:56;12.10;;;3.57;;
17987;SDS011;9119;50.932;5.342;2022-09-01T05:16:22;5.80;;;3.37;;
17987;SDS011;9119;50.932;5.342;2022-09-01T05:18:49;7.37;;;2.90;;
17987;SDS011;9119;50.932;5.342;2022-09-01T05:21:21;9.23;;;4.23;;
17987;SDS011;9119;50.932;5.342;2022-09-01T05:23:53;5.67;;;3.07;;
17987;SDS011;9119;50.932;5.342;2022-09-01T05:26:22;9.00;;;3.43;;
17987;SDS011;9119;50.932;5.342;2022-09-01T05:28:51;15.83;;;3.60;;
17987;SDS011;9119;50.932;5.342;2022-09-01T05:31:19;12.87;;;3.60;;
17987;SDS011;9119;50.932;5.342;2022-09-01T05:33:46;10.57;;;3.33;;
17987;SDS011;9119;50.932;5.342;2022-09-01T05:36:20;6.93;;;3.13;;
17987;SDS011;9119;50.932;5.342;2022-09-01T05:38:47;6.93;;;3.30;;
17987;SDS011;9119;50.932;5.342;2022-09-01T05:41:15;5.90;;;3.43;;
17987;SDS011;9119;50.932;5.342;2022-09-01T05:43:44;11.83;;;4.10;;
17987;SDS011;9119;50.932;5.342;2022-09-01T05:46:13;9.03;;;4.07;;
17987;SDS011;9119;50.932;5.342;2022-09-01T05:48:45;21.97;;;4.97;;
17987;SDS011;9119;50.932;5.342;2022-09-01T05:51:13;27.10;;;4.83;;
17987;SDS011;9119;50.932;5.342;2022-09-01T05:53:42;13.40;;;4.00;;
17987;SDS011;9119;50.932;5.342;2022-09-01T05:56:08;13.17;;;4.57;;
17987;SDS011;9119;50.932;5.342;2022-09-01T05:58:37;24.07;;;4.30;;
17987;SDS011;9119;50.932;5.342;2022-09-01T06:01:03;10.67;;;4.57;;
17987;SDS011;9119;50.932;5.342;2022-09-01T06:03:29;14.23;;;4.67;;
17987;SDS011;9119;50.932;5.342;2022-09-01T06:06:00;16.53;;;4.07;;
17987;SDS011;9119;50.932;5.342;2022-09-01T06:08:36;19.80;;;5.13;;
17987;SDS011;9119;50.932;5.342;2022-09-01T06:11:02;11.03;;;3.43;;
17987;SDS011;9119;50.932;5.342;2022-09-01T06:13:36;10.90;;;3.73;;
17987;SDS011;9119;50.932;5.342;2022-09-01T06:16:04;18.13;;;4.20;;
17987;SDS011;9119;50.932;5.342;2022-09-01T06:18:31;16.07;;;6.07;;
17987;SDS011;9119;50.932;5.342;2022-09-01T06:20:58;8.30;;;3.47;;
17987;SDS011;9119;50.932;5.342;2022-09-01T06:23:24;12.83;;;3.17;;
17987;SDS011;9119;50.932;5.342;2022-09-01T06:25:49;10.40;;;3.87;;
17987;SDS011;9119;50.932;5.342;2022-09-01T06:28:15;13.80;;;3.93;;
17987;SDS011;9119;50.932;5.342;2022-09-01T06:30:45;7.27;;;3.50;;
17987;SDS011;9119;50.932;5.342;2022-09-01T06:33:12;7.77;;;3.67;;
17987;SDS011;9119;50.932;5.342;2022-09-01T06:35:38;15.47;;;4.30;;
17987;SDS011;9119;50.932;5.342;2022-09-01T06:38:09;7.97;;;3.90;;
17987;SDS011;9119;50.932;5.342;2022-09-01T06:40:36;19.67;;;4.50;;
17987;SDS011;9119;50.932;5.342;2022-09-01T06:43:05;22.57;;;4.40;;
17987;SDS011;9119;50.932;5.342;2022-09-01T06:45:32;12.27;;;4.10;;
17987;SDS011;9119;50.932;5.342;2022-09-01T06:48:04;20.03;;;5.70;;
17987;SDS011;9119;50.932;5.342;2022-09-01T06:50:30;12.37;;;5.30;;
17987;SDS011;9119;50.932;5.342;2022-09-01T06:52:56;25.77;;;6.13;;
17987;SDS011;9119;50.932;5.342;2022-09-01T06:55:42;17.60;;;4.73;;
17987;SDS011;9119;50.932;5.342;2022-09-01T06:58:13;16.90;;;4.37;;
17987;SDS011;9119;50.932;5.342;2022-09-01T07:00:40;18.63;;;4.33;;
17987;SDS011;9119;50.932;5.342;2022-09-01T07:03:11;22.57;;;4.10;;
17987;SDS011;9119;50.932;5.342;2022-09-01T07:05:41;11.60;;;3.93;;
17987;SDS011;9119;50.932;5.342;2022-09-01T07:08:13;7.80;;;3.63;;
17987;SDS011;9119;50.932;5.342;2022-09-01T07:10:44;19.93;;;4.37;;
17987;SDS011;9119;50.932;5.342;2022-09-01T07:13:14;14.73;;;3.67;;
17987;SDS011;9119;50.932;5.342;2022-09-01T07:15:50;12.77;;;3.50;;
17987;SDS011;9119;50.932;5.342;2022-09-01T07:18:19;7.40;;;3.83;;
17987;SDS011;9119;50.932;5.342;2022-09-01T07:20:49;13.47;;;4.50;;
17987;SDS011;9119;50.932;5.342;2022-09-01T07:23:17;7.13;;;3.40;;
17987;SDS011;9119;50.932;5.342;2022-09-01T07:25:51;12.47;;;3.70;;
17987;SDS011;9119;50.932;5.342;2022-09-01T07:28:19;4.87;;;3.40;;
17987;SDS011;9119;50.932;5.342;2022-09-01T07:30:49;7.67;;;3.20;;
17987;SDS011;9119;50.932;5.342;2022-09-01T07:33:17;7.07;;;3.20;;
17987;SDS011;9119;50.932;5.342;2022-09-01T07:35:46;8.63;;;3.23;;
17987;SDS011;9119;50.932;5.342;2022-09-01T07:38:11;12.73;;;3.47;;
17987;SDS011;9119;50.932;5.342;2022-09-01T07:40:38;11.50;;;2.90;;
17987;SDS011;9119;50.932;5.342;2022-09-01T07:43:06;8.47;;;3.40;;
17987;SDS011;9119;50.932;5.342;2022-09-01T07:45:46;11.63;;;4.37;;
17987;SDS011;9119;50.932;5.342;2022-09-01T07:48:14;10.80;;;3.90;;
17987;SDS011;9119;50.932;5.342;2022-09-01T07:50:44;11.03;;;3.47;;
17987;SDS011;9119;50.932;5.342;2022-09-01T07:53:15;6.87;;;3.13;;
17987;SDS011;9119;50.932;5.342;2022-09-01T07:55:44;11.90;;;3.90;;
17987;SDS011;9119;50.932;5.342;2022-09-01T07:58:11;8.27;;;3.07;;
17987;SDS011;9119;50.932;5.342;2022-09-01T08:00:38;7.37;;;3.50;;
17987;SDS011;9119;50.932;5.342;2022-09-01T08:03:04;9.30;;;3.50;;
17987;SDS011;9119;50.932;5.342;2022-09-01T08:05:30;14.40;;;3.97;;
17987;SDS011;9119;50.932;5.342;2022-09-01T08:07:57;11.73;;;4.40;;
17987;SDS011;9119;50.932;5.342;2022-09-01T08:10:22;7.60;;;3.30;;
17987;SDS011;9119;50.932;5.342;2022-09-01T08:12:48;13.03;;;3.77;;
17987;SDS011;9119;50.932;5.342;2022-09-01T08:15:14;9.00;;;4.33;;
17987;SDS011;9119;50.932;5.342;2022-09-01T08:17:41;9.30;;;3.67;;
17987;SDS011;9119;50.932;5.342;2022-09-01T08:20:07;21.20;;;4.40;;
17987;SDS011;9119;50.932;5.342;2022-09-01T08:22:34;10.27;;;3.90;;
17987;SDS011;9119;50.932;5.342;2022-09-01T08:25:03;11.47;;;3.60;;
17987;SDS011;9119;50.932;5.342;2022-09-01T08:27:33;12.80;;;3.13;;
17987;SDS011;9119;50.932;5.342;2022-09-01T08:30:04;9.23;;;4.07;;
17987;SDS011;9119;50.932;5.342;2022-09-01T08:32:31;5.27;;;2.93;;
17987;SDS011;9119;50.932;5.342;2022-09-01T08:34:59;5.57;;;3.60;;
17987;SDS011;9119;50.932;5.342;2022-09-01T08:37:25;7.87;;;3.40;;
17987;SDS011;9119;50.932;5.342;2022-09-01T08:39:50;5.57;;;2.97;;
17987;SDS011;9119;50.932;5.342;2022-09-01T08:47:59;9.13;;;3.37;;
17987;SDS011;9119;50.932;5.342;2022-09-01T08:50:36;8.77;;;3.00;;
17987;SDS011;9119;50.932;5.342;2022-09-01T08:53:25;8.20;;;3.13;;
17987;SDS011;9119;50.932;5.342;2022-09-01T08:55:55;9.60;;;2.63;;
17987;SDS011;9119;50.932;5.342;2022-09-01T08:58:22;9.40;;;3.00;;
17987;SDS011;9119;50.932;5.342;2022-09-01T09:01:10;12.80;;;2.83;;
17987;SDS011;9119;50.932;5.342;2022-09-01T09:03:49;5.37;;;2.20;;
17987;SDS011;9119;50.932;5.342;2022-09-01T09:08:59;10.93;;;2.57;;
17987;SDS011;9119;50.932;5.342;2022-09-01T09:17:04;7.03;;;2.43;;
17987;SDS011;9119;50.932;5.342;2022-09-01T09:19:36;15.43;;;2.63;;
17987;SDS011;9119;50.932;5.342;2022-09-01T09:22:08;5.67;;;2.30;;
17987;SDS011;9119;50.932;5.342;2022-09-01T09:24:44;8.10;;;2.47;;
17987;SDS011;9119;50.932;5.342;2022-09-01T09:27:33;7.47;;;2.40;;
17987;SDS011;9119;50.932;5.342;2022-09-01T09:30:07;11.80;;;2.67;;
17987;SDS011;9119;50.932;5.342;2022-09-01T09:32:52;4.03;;;2.33;;
17987;SDS011;9119;50.932;5.342;2022-09-01T09:43:56;2.90;;;2.07;;
17987;SDS011;9119;50.932;5.342;2022-09-01T09:46:41;6.50;;;1.87;;
17987;SDS011;9119;50.932;5.342;2022-09-01T09:51:37;7.77;;;2.37;;
17987;SDS011;9119;50.932;5.342;2022-09-01T09:56:42;14.00;;;2.60;;
17987;SDS011;9119;50.932;5.342;2022-09-01T09:59:20;3.63;;;1.80;;
17987;SDS011;9119;50.932;5.342;2022-09-01T10:01:58;6.57;;;2.00;;
17987;SDS011;9119;50.932;5.342;2022-09-01T10:04:38;9.03;;;2.00;;
17987;SDS011;9119;50.932;5.342;2022-09-01T10:09:51;2.47;;;1.47;;
17987;SDS011;9119;50.932;5.342;2022-09-01T10:12:19;3.90;;;1.93;;
17987;SDS011;9119;50.932;5.342;2022-09-01T10:14:50;7.17;;;1.93;;
17987;SDS011;9119;50.932;5.342;2022-09-01T10:17:24;6.37;;;1.90;;
17987;SDS011;9119;50.932;5.342;2022-09-01T10:20:00;7.80;;;2.13;;
17987;SDS011;9119;50.932;5.342;2022-09-01T10:22:30;6.60;;;2.03;;
17987;SDS011;9119;50.932;5.342;2022-09-01T10:24:57;5.33;;;1.80;;
17987;SDS011;9119;50.932;5.342;2022-09-01T10:27:26;3.08;;;2.05;;
17987;SDS011;9119;50.932;5.342;2022-09-01T10:32:37;6.93;;;2.00;;
17987;SDS011;9119;50.932;5.342;2022-09-01T10:35:06;8.77;;;1.90;;
17987;SDS011;9119;50.932;5.342;2022-09-01T10:37:36;4.43;;;2.07;;
17987;SDS011;9119;50.932;5.342;2022-09-01T10:42:38;10.30;;;1.80;;
17987;SDS011;9119;50.932;5.342;2022-09-01T10:45:18;4.20;;;1.63;;
17987;SDS011;9119;50.932;5.342;2022-09-01T10:47:45;2.60;;;1.60;;
17987;SDS011;9119;50.932;5.342;2022-09-01T10:50:28;2.13;;;1.52;;
17987;SDS011;9119;50.932;5.342;2022-09-01T10:55:44;2.88;;;1.52;;
17987;SDS011;9119;50.932;5.342;2022-09-01T10:58:24;6.90;;;1.40;;
17987;SDS011;9119;50.932;5.342;2022-09-01T11:01:08;6.13;;;1.60;;
17987;SDS011;9119;50.932;5.342;2022-09-01T11:03:38;6.05;;;1.38;;
17987;SDS011;9119;50.932;5.342;2022-09-01T11:06:32;2.70;;;1.50;;
17987;SDS011;9119;50.932;5.342;2022-09-01T11:09:24;16.00;;;2.97;;
17987;SDS011;9119;50.932;5.342;2022-09-01T11:14:22;6.68;;;2.40;;
17987;SDS011;9119;50.932;5.342;2022-09-01T11:20:01;3.33;;;1.40;;
17987;SDS011;9119;50.932;5.342;2022-09-01T11:22:38;2.75;;;1.35;;
17987;SDS011;9119;50.932;5.342;2022-09-01T11:25:11;3.38;;;1.60;;
17987;SDS011;9119;50.932;5.342;2022-09-01T11:30:17;9.10;;;1.90;;
17987;SDS011;9119;50.932;5.342;2022-09-01T11:32:49;7.30;;;1.30;;
17987;SDS011;9119;50.932;5.342;2022-09-01T11:35:22;13.35;;;1.55;;
17987;SDS011;9119;50.932;5.342;2022-09-01T11:37:54;6.15;;;1.30;;
17987;SDS011;9119;50.932;5.342;2022-09-01T11:40:29;10.80;;;3.30;;
17987;SDS011;9119;50.932;5.342;2022-09-01T11:42:56;9.13;;;2.20;;
17987;SDS011;9119;50.932;5.342;2022-09-01T11:45:26;4.97;;;1.83;;
17987;SDS011;9119;50.932;5.342;2022-09-01T11:47:57;2.73;;;1.73;;
17987;SDS011;9119;50.932;5.342;2022-09-01T11:50:30;12.17;;;1.63;;
17987;SDS011;9119;50.932;5.342;2022-09-01T11:52:58;7.93;;;2.13;;
17987;SDS011;9119;50.932;5.342;2022-09-01T11:55:33;7.90;;;2.30;;
17987;SDS011;9119;50.932;5.342;2022-09-01T11:58:02;4.23;;;1.90;;
17987;SDS011;9119;50.932;5.342;2022-09-01T12:00:29;4.87;;;1.50;;
17987;SDS011;9119;50.932;5.342;2022-09-01T12:02:57;2.80;;;1.70;;
17987;SDS011;9119;50.932;5.342;2022-09-01T12:05:34;6.23;;;2.33;;
17987;SDS011;9119;50.932;5.342;2022-09-01T12:08:14;5.93;;;1.67;;
17987;SDS011;9119;50.932;5.342;2022-09-01T12:10:42;3.60;;;1.90;;
17987;SDS011;9119;50.932;5.342;2022-09-01T12:13:19;7.73;;;1.60;;
17987;SDS011;9119;50.932;5.342;2022-09-01T12:15:57;5.10;;;1.63;;
17987;SDS011;9119;50.932;5.342;2022-09-01T12:18:26;8.13;;;1.67;;
17987;SDS011;9119;50.932;5.342;2022-09-01T12:20:54;3.33;;;1.50;;
17987;SDS011;9119;50.932;5.342;2022-09-01T12:23:27;9.30;;;1.73;;
17987;SDS011;9119;50.932;5.342;2022-09-01T12:25:56;4.70;;;1.70;;
17987;SDS011;9119;50.932;5.342;2022-09-01T12:28:25;5.17;;;1.97;;
17987;SDS011;9119;50.932;5.342;2022-09-01T12:30:58;17.20;;;6.93;;
17987;SDS011;9119;50.932;5.342;2022-09-01T12:33:26;6.40;;;1.77;;
17987;SDS011;9119;50.932;5.342;2022-09-01T12:38:46;3.67;;;1.50;;
17987;SDS011;9119;50.932;5.342;2022-09-01T12:47:05;2.40;;;1.37;;
17987;SDS011;9119;50.932;5.342;2022-09-01T12:54:35;12.13;;;1.93;;
17987;SDS011;9119;50.932;5.342;2022-09-01T12:57:01;6.07;;;1.70;;
17987;SDS011;9119;50.932;5.342;2022-09-01T12:59:27;3.20;;;1.60;;
17987;SDS011;9119;50.932;5.342;2022-09-01T13:01:53;5.73;;;1.60;;
17987;SDS011;9119;50.932;5.342;2022-09-01T13:04:28;3.67;;;1.50;;
17987;SDS011;9119;50.932;5.342;2022-09-01T13:07:00;5.87;;;1.90;;
17987;SDS011;9119;50.932;5.342;2022-09-01T13:09:28;4.00;;;1.87;;
17987;SDS011;9119;50.932;5.342;2022-09-01T13:12:07;3.13;;;1.47;;
17987;SDS011;9119;50.932;5.342;2022-09-01T13:14:34;8.33;;;1.70;;
17987;SDS011;9119;50.932;5.342;2022-09-01T13:16:59;6.23;;;1.50;;
17987;SDS011;9119;50.932;5.342;2022-09-01T13:19:25;3.80;;;1.83;;
17987;SDS011;9119;50.932;5.342;2022-09-01T13:21:51;2.47;;;1.63;;
17987;SDS011;9119;50.932;5.342;2022-09-01T13:24:16;2.17;;;1.50;;
17987;SDS011;9119;50.932;5.342;2022-09-01T13:26:42;6.27;;;2.00;;
17987;SDS011;9119;50.932;5.342;2022-09-01T13:29:10;5.10;;;1.70;;
17987;SDS011;9119;50.932;5.342;2022-09-01T13:31:36;8.23;;;1.60;;
17987;SDS011;9119;50.932;5.342;2022-09-01T13:34:01;5.30;;;1.40;;
17987;SDS011;9119;50.932;5.342;2022-09-01T13:36:27;5.77;;;1.87;;
17987;SDS011;9119;50.932;5.342;2022-09-01T13:38:52;2.27;;;1.50;;
17987;SDS011;9119;50.932;5.342;2022-09-01T13:41:18;4.13;;;1.77;;
17987;SDS011;9119;50.932;5.342;2022-09-01T13:43:44;7.37;;;1.50;;
17987;SDS011;9119;50.932;5.342;2022-09-01T13:46:11;3.90;;;1.43;;
17987;SDS011;9119;50.932;5.342;2022-09-01T13:48:36;3.10;;;1.37;;
17987;SDS011;9119;50.932;5.342;2022-09-01T13:51:02;7.57;;;1.90;;
17987;SDS011;9119;50.932;5.342;2022-09-01T13:53:28;6.47;;;2.20;;
17987;SDS011;9119;50.932;5.342;2022-09-01T13:55:54;5.70;;;1.83;;
17987;SDS011;9119;50.932;5.342;2022-09-01T13:58:20;6.07;;;1.50;;
17987;SDS011;9119;50.932;5.342;2022-09-01T14:00:46;6.90;;;1.70;;
17987;SDS011;9119;50.932;5.342;2022-09-01T14:03:16;8.60;;;2.73;;
17987;SDS011;9119;50.932;5.342;2022-09-01T14:05:44;4.63;;;1.67;;
17987;SDS011;9119;50.932;5.342;2022-09-01T14:08:12;3.70;;;1.57;;
17987;SDS011;9119;50.932;5.342;2022-09-01T14:10:40;7.30;;;1.80;;
17987;SDS011;9119;50.932;5.342;2022-09-01T14:13:11;4.80;;;1.80;;
17987;SDS011;9119;50.932;5.342;2022-09-01T14:15:40;8.20;;;1.73;;
17987;SDS011;9119;50.932;5.342;2022-09-01T14:18:06;6.40;;;1.90;;
17987;SDS011;9119;50.932;5.342;2022-09-01T14:20:34;5.67;;;1.47;;
17987;SDS011;9119;50.932;5.342;2022-09-01T14:23:03;6.70;;;1.87;;
17987;SDS011;9119;50.932;5.342;2022-09-01T14:25:30;7.30;;;1.70;;
17987;SDS011;9119;50.932;5.342;2022-09-01T14:27:57;3.33;;;1.87;;
17987;SDS011;9119;50.932;5.342;2022-09-01T14:30:25;2.17;;;1.53;;
17987;SDS011;9119;50.932;5.342;2022-09-01T14:32:53;8.40;;;1.57;;
17987;SDS011;9119;50.932;5.342;2022-09-01T14:35:20;4.87;;;1.57;;
17987;SDS011;9119;50.932;5.342;2022-09-01T14:37:49;4.20;;;1.80;;
17987;SDS011;9119;50.932;5.342;2022-09-01T14:40:15;8.10;;;2.60;;
17987;SDS011;9119;50.932;5.342;2022-09-01T14:42:42;9.53;;;2.27;;
17987;SDS011;9119;50.932;5.342;2022-09-01T14:45:11;1.90;;;1.60;;
17987;SDS011;9119;50.932;5.342;2022-09-01T14:47:39;11.50;;;4.60;;
17987;SDS011;9119;50.932;5.342;2022-09-01T14:50:05;5.57;;;2.00;;
17987;SDS011;9119;50.932;5.342;2022-09-01T14:52:31;5.90;;;1.60;;
17987;SDS011;9119;50.932;5.342;2022-09-01T14:54:57;3.73;;;1.73;;
17987;SDS011;9119;50.932;5.342;2022-09-01T14:57:22;5.73;;;1.70;;
17987;SDS011;9119;50.932;5.342;2022-09-01T14:59:48;5.97;;;1.67;;
17987;SDS011;9119;50.932;5.342;2022-09-01T15:02:14;4.27;;;2.17;;
17987;SDS011;9119;50.932;5.342;2022-09-01T15:04:40;4.27;;;1.77;;
17987;SDS011;9119;50.932;5.342;2022-09-01T15:07:06;4.33;;;1.70;;
17987;SDS011;9119;50.932;5.342;2022-09-01T15:09:32;9.80;;;2.73;;
17987;SDS011;9119;50.932;5.342;2022-09-01T15:11:59;5.77;;;1.73;;
17987;SDS011;9119;50.932;5.342;2022-09-01T15:14:25;2.63;;;2.13;;
17987;SDS011;9119;50.932;5.342;2022-09-01T15:16:51;3.93;;;2.07;;
17987;SDS011;9119;50.932;5.342;2022-09-01T15:19:17;7.07;;;1.90;;
17987;SDS011;9119;50.932;5.342;2022-09-01T15:21:43;2.47;;;1.70;;
17987;SDS011;9119;50.932;5.342;2022-09-01T15:24:10;3.10;;;1.90;;
17987;SDS011;9119;50.932;5.342;2022-09-01T15:26:36;2.90;;;1.80;;
17987;SDS011;9119;50.932;5.342;2022-09-01T15:29:04;3.77;;;1.60;;
17987;SDS011;9119;50.932;5.342;2022-09-01T15:31:31;5.80;;;1.80;;
17987;SDS011;9119;50.932;5.342;2022-09-01T15:33:58;5.93;;;1.73;;
17987;SDS011;9119;50.932;5.342;2022-09-01T15:36:26;3.63;;;2.00;;
17987;SDS011;9119;50.932;5.342;2022-09-01T15:38:54;4.83;;;2.03;;
17987;SDS011;9119;50.932;5.342;2022-09-01T15:41:21;4.50;;;1.70;;
17987;SDS011;9119;50.932;5.342;2022-09-01T15:43:49;4.90;;;2.13;;
17987;SDS011;9119;50.932;5.342;2022-09-01T15:46:15;4.57;;;1.87;;
17987;SDS011;9119;50.932;5.342;2022-09-01T15:48:42;6.60;;;2.13;;
17987;SDS011;9119;50.932;5.342;2022-09-01T15:53:47;2.77;;;1.57;;
17987;SDS011;9119;50.932;5.342;2022-09-01T15:56:14;4.23;;;2.07;;
17987;SDS011;9119;50.932;5.342;2022-09-01T15:58:42;3.80;;;2.00;;
17987;SDS011;9119;50.932;5.342;2022-09-01T16:01:08;10.13;;;1.90;;
17987;SDS011;9119;50.932;5.342;2022-09-01T16:03:34;6.30;;;2.10;;
17987;SDS011;9119;50.932;5.342;2022-09-01T16:06:00;4.73;;;1.80;;
17987;SDS011;9119;50.932;5.342;2022-09-01T16:08:26;4.20;;;1.90;;
17987;SDS011;9119;50.932;5.342;2022-09-01T16:10:52;5.77;;;2.27;;
17987;SDS011;9119;50.932;5.342;2022-09-01T16:13:18;4.33;;;1.90;;
17987;SDS011;9119;50.932;5.342;2022-09-01T16:16:04;6.33;;;2.10;;